createdAt,value
2019-04-10T00:01:12.146Z,73.47
2019-04-10T00:03:41.820Z,80.28
2019-04-10T00:06:08.768Z,76.37
2019-04-10T00:08:36.553Z,76.77
2019-04-10T00:11:04.649Z,78.35
2019-04-10T00:13:32.032Z,75.85
2019-04-10T00:15:59.180Z,77.47
2019-04-10T00:18:26.370Z,82.85
2019-04-10T00:20:53.598Z,75.08
2019-04-10T00:23:20.654Z,86.45
2019-04-10T00:25:48.716Z,78.55
2019-04-10T00:28:17.024Z,78.30
2019-04-10T00:30:45.068Z,80.20
2019-04-10T00:33:12.435Z,74.92
2019-04-10T00:35:39.738Z,81.20
2019-04-10T00:38:07.233Z,75.50
2019-04-10T00:40:35.240Z,80.75
2019-04-10T00:43:02.321Z,77.67
2019-04-10T00:45:29.615Z,82.37
2019-04-10T00:47:56.662Z,85.03
2019-04-10T00:50:23.963Z,83.62
2019-04-10T00:52:51.264Z,81.90
2019-04-10T00:55:19.635Z,71.10
2019-04-10T00:57:47.777Z,82.67
2019-04-10T01:00:15.033Z,75.87
2019-04-10T01:02:42.930Z,80.12
2019-04-10T01:05:11.071Z,74.95
2019-04-10T01:07:41.145Z,76.07
2019-04-10T01:10:08.178Z,80.95
2019-04-10T01:12:36.243Z,83.20
2019-04-10T01:15:04.609Z,78.17
2019-04-10T01:17:32.768Z,80.15
2019-04-10T01:20:00.643Z,80.70
2019-04-10T01:22:27.904Z,82.50
2019-04-10T01:24:54.963Z,77.32
2019-04-10T01:27:22.006Z,76.75
2019-04-10T01:29:49.607Z,82.42
2019-04-10T01:32:17.415Z,77.45
2019-04-10T01:34:45.492Z,76.97
2019-04-10T01:37:12.572Z,75.25
2019-04-10T01:39:40.252Z,85.07
2019-04-10T01:42:08.170Z,80.57
2019-04-10T01:44:36.246Z,82.55
2019-04-10T01:47:04.586Z,80.50
2019-04-10T01:49:31.942Z,78.55
2019-04-10T01:51:59.545Z,75.80
2019-04-10T01:54:27.563Z,79.72
2019-04-10T01:56:55.591Z,78.83
2019-04-10T01:59:23.629Z,76.50
2019-04-10T02:01:50.654Z,71.37
2019-04-10T02:04:18.904Z,74.77
2019-04-10T02:06:46.204Z,73.90
2019-04-10T02:09:13.504Z,76.62
2019-04-10T02:11:40.559Z,79.25
2019-04-10T02:14:07.904Z,73.30
2019-04-10T02:16:35.168Z,71.82
2019-04-10T02:19:02.462Z,79.25
2019-04-10T02:21:29.698Z,71.00
2019-04-10T02:24:01.524Z,74.58
2019-04-10T02:26:29.721Z,71.22
2019-04-10T02:28:57.615Z,76.20
2019-04-10T02:31:26.438Z,70.15
2019-04-10T02:33:53.840Z,73.40
2019-04-10T02:36:21.325Z,71.70
2019-04-10T02:38:59.060Z,74.67
2019-04-10T02:41:17.657Z,75.35
2019-04-10T02:43:45.340Z,72.03
2019-04-10T02:46:13.309Z,71.15
2019-04-10T02:48:41.535Z,74.30
2019-04-10T02:51:09.700Z,71.65
2019-04-10T02:53:37.470Z,70.80
2019-04-10T02:56:05.385Z,74.07
2019-04-10T02:58:34.314Z,70.50
2019-04-10T03:01:03.090Z,69.85
2019-04-10T03:03:30.555Z,70.92
2019-04-10T03:05:58.735Z,72.35
2019-04-10T03:08:40.988Z,72.42
2019-04-10T03:11:00.410Z,72.82
2019-04-10T03:13:23.979Z,74.82
2019-04-10T03:15:51.813Z,77.90
2019-04-10T03:18:19.201Z,70.92
2019-04-10T03:20:46.827Z,69.07
2019-04-10T03:23:14.124Z,72.08
2019-04-10T03:25:41.500Z,66.60
2019-04-10T03:28:09.092Z,75.08
2019-04-10T03:30:38.786Z,68.78
2019-04-10T03:33:10.853Z,68.37
2019-04-10T03:35:34.672Z,72.58
2019-04-10T03:38:01.917Z,68.28
2019-04-10T03:40:29.277Z,69.10
2019-04-10T03:42:57.231Z,70.30
2019-04-10T03:45:24.503Z,69.42
2019-04-10T03:47:51.583Z,66.57
2019-04-10T03:50:28.644Z,71.10
2019-04-10T03:52:56.310Z,70.37
2019-04-10T03:55:23.352Z,72.72
2019-04-10T03:57:51.872Z,70.12
2019-04-10T04:00:20.887Z,68.75
2019-04-10T04:02:48.331Z,67.08
2019-04-10T04:05:15.444Z,68.30
2019-04-10T04:07:43.173Z,68.37
2019-04-10T04:10:12.699Z,69.65
2019-04-10T04:12:40.260Z,68.50
2019-04-10T04:15:07.630Z,71.47
2019-04-10T04:17:34.683Z,69.40
2019-04-10T04:20:02.511Z,74.82
2019-04-10T04:22:30.623Z,71.57
2019-04-10T04:24:58.188Z,68.80
2019-04-10T04:27:25.635Z,69.05
2019-04-10T04:29:54.100Z,71.60
2019-04-10T04:32:21.767Z,69.47
2019-04-10T04:34:49.771Z,70.08
2019-04-10T04:37:16.886Z,71.45
2019-04-10T04:39:45.303Z,69.30
2019-04-10T04:42:12.859Z,71.97
2019-04-10T04:44:40.294Z,71.42
2019-04-10T04:47:07.677Z,71.70
2019-04-10T04:49:35.805Z,69.50
2019-04-10T04:52:03.080Z,79.15
2019-04-10T04:54:30.992Z,75.05
2019-04-10T04:56:58.148Z,68.95
2019-04-10T04:59:26.180Z,69.45
2019-04-10T05:01:53.426Z,66.40
2019-04-10T05:04:20.767Z,70.47
2019-04-10T05:06:50.103Z,68.60
2019-04-10T05:09:30.120Z,75.57
2019-04-10T05:11:46.873Z,68.75
2019-04-10T05:14:15.272Z,68.80
2019-04-10T05:16:43.670Z,67.47
2019-04-10T05:19:12.156Z,71.15
2019-04-10T05:21:39.650Z,73.02
2019-04-10T05:24:07.358Z,66.87
2019-04-10T05:26:34.733Z,65.78
2019-04-10T05:29:02.664Z,63.75
2019-04-10T05:31:29.711Z,67.78
2019-04-10T05:33:57.466Z,67.62
2019-04-10T05:36:25.652Z,65.35
2019-04-10T05:38:52.686Z,71.15
2019-04-10T05:41:19.749Z,67.15
2019-04-10T05:43:47.039Z,59.93
2019-04-10T05:46:14.468Z,61.23
2019-04-10T05:48:41.899Z,68.50
2019-04-10T05:51:09.494Z,61.60
2019-04-10T05:53:36.872Z,60.60
2019-04-10T05:56:03.916Z,61.15
2019-04-10T05:58:31.516Z,59.67
2019-04-10T06:00:58.848Z,61.77
2019-04-10T06:03:26.010Z,57.10
2019-04-10T06:05:54.204Z,62.50
2019-04-10T06:08:21.690Z,58.38
2019-04-10T06:10:49.792Z,58.40
2019-04-10T06:13:17.267Z,60.35
2019-04-10T06:15:45.440Z,62.90
2019-04-10T06:18:13.954Z,59.85
2019-04-10T06:20:41.751Z,54.10
2019-04-10T06:23:09.494Z,55.33
2019-04-10T06:25:38.877Z,56.73
2019-04-10T06:28:05.574Z,59.55
2019-04-10T06:30:34.128Z,54.88
2019-04-10T06:33:02.151Z,54.23
2019-04-10T06:35:30.213Z,51.88
2019-04-10T06:37:57.311Z,53.38
2019-04-10T06:40:27.184Z,53.85
2019-04-10T06:42:55.016Z,65.87
2019-04-10T06:45:22.114Z,49.73
2019-04-10T06:47:49.408Z,52.90
2019-04-10T06:50:16.920Z,50.85
2019-04-10T06:52:44.998Z,50.67
2019-04-10T06:55:13.357Z,48.35
2019-04-10T06:57:50.987Z,49.13
2019-04-10T07:00:12.710Z,48.02
2019-04-10T07:02:38.785Z,50.20
2019-04-10T07:05:08.773Z,51.08
2019-04-10T07:07:46.035Z,49.42
2019-04-10T07:10:04.030Z,47.70
2019-04-10T07:12:34.082Z,47.80
2019-04-10T07:15:02.376Z,48.60
2019-04-10T07:17:35.670Z,47.62
2019-04-10T07:20:01.975Z,47.48
2019-04-10T07:22:31.134Z,46.98
2019-04-10T07:24:58.443Z,45.95
2019-04-10T07:27:25.718Z,46.30
2019-04-10T07:29:57.305Z,46.65
2019-04-10T07:32:24.173Z,49.13
2019-04-10T07:34:51.008Z,46.35
2019-04-10T07:37:21.672Z,47.85
2019-04-10T07:39:47.374Z,45.23
2019-04-10T07:42:26.021Z,47.43
2019-04-10T07:44:43.711Z,44.73
2019-04-10T07:47:11.176Z,47.27
2019-04-10T07:49:39.656Z,45.80
2019-04-10T07:52:06.899Z,47.70
2019-04-10T07:54:35.061Z,47.90
2019-04-10T07:57:02.517Z,49.10
2019-04-10T07:59:31.278Z,46.23
2019-04-10T08:01:58.460Z,46.83
2019-04-10T08:04:26.852Z,47.73
2019-04-10T08:06:54.411Z,45.73
2019-04-10T08:09:21.680Z,46.68
2019-04-10T08:11:48.951Z,48.28
2019-04-10T08:14:16.893Z,44.38
2019-04-10T08:16:43.965Z,45.75
2019-04-10T08:19:11.018Z,48.25
2019-04-10T08:21:38.321Z,43.65
2019-04-10T08:24:05.366Z,45.25
2019-04-10T08:26:32.571Z,48.95
2019-04-10T08:28:59.975Z,48.58
2019-04-10T08:31:27.015Z,51.02
2019-04-10T08:33:54.744Z,50.40
2019-04-10T08:36:21.804Z,45.05
2019-04-10T08:38:49.009Z,48.23
2019-04-10T08:41:17.163Z,49.42
2019-04-10T08:43:44.269Z,46.45
2019-04-10T08:46:12.808Z,46.15
2019-04-10T08:48:39.985Z,45.75
2019-04-10T08:51:07.261Z,43.58
2019-04-10T08:53:34.387Z,46.88
2019-04-10T08:56:02.390Z,48.13
2019-04-10T08:58:30.661Z,46.88
2019-04-10T09:00:58.659Z,45.05
2019-04-10T09:03:26.749Z,46.75
2019-04-10T09:05:53.848Z,47.75
2019-04-10T09:08:21.241Z,47.80
2019-04-10T09:10:48.595Z,48.92
2019-04-10T09:13:16.673Z,47.48
2019-04-10T09:15:44.142Z,45.67
2019-04-10T09:18:12.754Z,46.33
2019-04-10T09:20:40.566Z,44.70
2019-04-10T09:23:18.726Z,47.70
2019-04-10T09:25:37.477Z,47.90
2019-04-10T09:28:04.894Z,43.33
2019-04-10T09:30:33.833Z,46.53
2019-04-10T09:33:05.550Z,45.17
2019-04-10T09:35:30.785Z,44.40
2019-04-10T09:37:58.691Z,44.83
2019-04-10T09:40:26.091Z,47.38
2019-04-10T09:42:53.134Z,43.35
2019-04-10T09:45:20.191Z,43.73
2019-04-10T09:47:48.084Z,43.58
2019-04-10T09:50:15.276Z,44.63
2019-04-10T09:52:42.271Z,45.73
2019-04-10T09:55:09.552Z,45.67
2019-04-10T09:57:36.797Z,44.13
2019-04-10T10:00:05.226Z,41.53
2019-04-10T10:02:34.030Z,42.08
2019-04-10T10:05:02.247Z,39.10
2019-04-10T10:07:29.461Z,39.58
2019-04-10T10:10:00.437Z,45.30
2019-04-10T10:12:25.785Z,46.60
2019-04-10T10:14:53.876Z,44.33
2019-04-10T10:17:20.859Z,43.35
2019-04-10T10:19:48.179Z,44.10
2019-04-10T10:22:15.519Z,39.83
2019-04-10T10:24:42.868Z,42.48
2019-04-10T10:27:09.906Z,40.70
2019-04-10T10:29:37.647Z,39.83
2019-04-10T10:32:04.939Z,40.85
2019-04-10T10:34:31.987Z,39.27
2019-04-10T10:37:00.023Z,41.50
2019-04-10T10:39:28.570Z,39.83
2019-04-10T10:41:56.470Z,40.08
2019-04-10T10:44:23.820Z,40.33
2019-04-10T10:46:51.580Z,40.88
2019-04-10T10:49:20.156Z,40.30
2019-04-10T10:51:47.569Z,38.95
2019-04-10T10:54:14.673Z,40.23
2019-04-10T10:56:42.591Z,40.28
2019-04-10T10:59:09.714Z,38.30
2019-04-10T11:01:38.029Z,38.35
2019-04-10T11:04:05.110Z,38.90
2019-04-10T11:06:33.190Z,39.27
2019-04-10T11:09:00.189Z,40.88
2019-04-10T11:11:28.234Z,39.88
2019-04-10T11:13:55.262Z,41.13
2019-04-10T11:16:23.219Z,36.88
2019-04-10T11:18:50.917Z,39.03
2019-04-10T11:21:18.266Z,40.25
2019-04-10T11:23:45.274Z,40.45
2019-04-10T11:26:18.229Z,42.40
2019-04-10T11:28:41.906Z,38.35
2019-04-10T11:31:09.336Z,43.38
2019-04-10T11:33:37.298Z,38.60
2019-04-10T11:36:06.463Z,40.25
2019-04-10T11:38:35.762Z,41.40
2019-04-10T11:41:05.958Z,39.15
2019-04-10T11:43:33.621Z,39.88
2019-04-10T11:46:02.659Z,37.38
2019-04-10T11:48:31.174Z,41.20
2019-04-10T11:51:00.608Z,39.20
2019-04-10T11:53:27.657Z,40.95
2019-04-10T11:55:57.000Z,38.53
2019-04-10T11:58:25.262Z,37.63
2019-04-10T12:03:22.610Z,38.55
2019-04-10T12:05:51.838Z,39.38
2019-04-10T12:08:44.743Z,36.58
2019-04-10T12:13:18.376Z,39.70
2019-04-10T12:15:45.814Z,37.55
2019-04-10T12:18:14.115Z,37.38
2019-04-10T12:20:41.536Z,34.90
2019-04-10T12:23:08.892Z,39.92
2019-04-10T12:25:36.630Z,36.55
2019-04-10T12:28:04.028Z,35.30
2019-04-10T12:30:31.179Z,34.80
2019-04-10T12:32:58.206Z,34.92
2019-04-10T12:35:25.578Z,32.42
2019-04-10T12:38:01.461Z,32.40
2019-04-10T12:40:21.706Z,34.50
2019-04-10T12:42:48.995Z,33.65
2019-04-10T12:45:16.316Z,31.25
2019-04-10T12:47:43.425Z,30.72
2019-04-10T12:50:10.534Z,31.52
2019-04-10T12:52:38.703Z,31.07
2019-04-10T12:55:05.987Z,30.92
2019-04-10T12:57:33.394Z,29.25
2019-04-10T13:00:04.050Z,29.37
2019-04-10T13:02:30.308Z,28.70
2019-04-10T13:04:57.384Z,29.35
2019-04-10T13:07:24.709Z,25.72
2019-04-10T13:09:52.032Z,29.02
2019-04-10T13:12:19.088Z,27.75
2019-04-10T13:14:46.515Z,27.90
2019-04-10T13:17:14.368Z,28.45
2019-04-10T13:19:42.858Z,26.17
2019-04-10T13:22:11.678Z,27.75
2019-04-10T13:24:38.731Z,27.55
2019-04-10T13:27:06.246Z,26.48
2019-04-10T13:29:33.266Z,26.68
2019-04-10T13:32:01.378Z,28.52
2019-04-10T13:34:29.087Z,29.23
2019-04-10T13:36:56.735Z,28.70
2019-04-10T13:39:24.620Z,26.00
2019-04-10T13:41:52.566Z,28.55
2019-04-10T13:44:21.135Z,30.62
2019-04-10T13:46:49.065Z,30.65
2019-04-10T13:49:16.116Z,29.72
2019-04-10T13:51:43.601Z,28.45
2019-04-10T13:54:14.693Z,28.57
2019-04-10T13:56:41.318Z,30.90
2019-04-10T13:59:08.906Z,29.72
2019-04-10T14:01:36.324Z,32.25
2019-04-10T14:04:05.018Z,30.02
2019-04-10T14:06:33.931Z,30.20
2019-04-10T14:09:17.845Z,28.15
2019-04-10T14:13:58.914Z,26.05
2019-04-10T14:16:26.211Z,29.30
2019-04-10T14:18:53.524Z,29.15
2019-04-10T14:21:20.880Z,28.92
2019-04-10T14:23:47.926Z,29.67
2019-04-10T14:26:16.159Z,28.50
2019-04-10T14:28:43.666Z,25.00
2019-04-10T14:31:11.708Z,28.10
2019-04-10T14:33:39.902Z,26.85
2019-04-10T14:36:07.602Z,25.32
2019-04-10T14:38:35.048Z,27.90
2019-04-10T14:41:03.222Z,26.62
2019-04-10T14:43:30.586Z,25.25
2019-04-10T14:45:57.744Z,28.30
2019-04-10T14:48:25.062Z,26.55
2019-04-10T14:50:52.420Z,27.50
2019-04-10T14:53:19.482Z,27.02
2019-04-10T14:58:49.008Z,27.58
2019-04-10T15:01:16.045Z,27.90
2019-04-10T15:03:44.477Z,29.12
2019-04-10T15:06:11.980Z,28.50
2019-04-10T15:08:39.702Z,26.23
2019-04-10T15:11:07.119Z,29.12
2019-04-10T15:13:34.436Z,27.52
2019-04-10T15:16:02.930Z,27.73
2019-04-10T15:18:30.908Z,29.25
2019-04-10T15:20:58.573Z,33.20
2019-04-10T15:23:25.733Z,29.02
2019-04-10T15:25:53.092Z,29.45
2019-04-10T15:28:20.141Z,31.82
2019-04-10T15:30:47.606Z,29.18
2019-04-10T15:33:14.635Z,30.77
2019-04-10T15:35:42.646Z,31.95
2019-04-10T15:38:10.058Z,32.38
2019-04-10T15:40:38.503Z,30.62
2019-04-10T15:43:06.096Z,31.62
2019-04-10T15:45:33.145Z,32.98
2019-04-10T15:48:01.571Z,31.23
2019-04-10T15:50:29.154Z,31.37
2019-04-10T15:52:57.864Z,32.67
2019-04-10T15:55:25.836Z,33.30
2019-04-10T15:57:57.814Z,34.50
2019-04-10T16:00:23.289Z,34.65
2019-04-10T16:02:51.031Z,33.33
2019-04-10T16:05:19.523Z,34.90
2019-04-10T16:07:47.003Z,32.70
2019-04-10T16:10:14.820Z,34.90
2019-04-10T16:12:42.343Z,33.70
2019-04-10T16:15:09.699Z,32.53
2019-04-10T16:17:37.654Z,33.60
2019-04-10T16:20:05.023Z,36.68
2019-04-10T16:22:33.168Z,32.93
2019-04-10T16:25:01.156Z,33.60
2019-04-10T16:27:28.731Z,35.35
2019-04-10T16:29:56.598Z,35.05
2019-04-10T16:32:24.440Z,29.20
2019-04-10T16:34:51.896Z,32.75
2019-04-10T16:37:18.939Z,29.95
2019-04-10T16:39:57.603Z,34.67
2019-04-10T16:42:15.061Z,30.45
2019-04-10T16:44:43.861Z,31.00
2019-04-10T16:47:12.021Z,32.60
2019-04-10T16:49:39.293Z,30.57
2019-04-10T16:52:07.119Z,27.20
2019-04-10T16:54:35.377Z,30.45
2019-04-10T16:57:02.845Z,28.20
2019-04-10T16:59:30.179Z,30.62
2019-04-10T17:01:57.347Z,28.25
2019-04-10T17:04:24.360Z,28.87
2019-04-10T17:06:52.569Z,31.40
2019-04-10T17:09:20.710Z,31.15
2019-04-10T17:11:49.284Z,28.38
2019-04-10T17:14:17.471Z,27.42
2019-04-10T17:16:46.049Z,27.75
2019-04-10T17:19:13.919Z,29.35
2019-04-10T17:21:42.550Z,28.90
2019-04-10T17:24:09.671Z,28.45
2019-04-10T17:26:37.132Z,29.02
2019-04-10T17:29:05.063Z,27.82
2019-04-10T17:31:32.942Z,28.90
2019-04-10T17:34:00.624Z,28.98
2019-04-10T17:36:29.414Z,27.80
2019-04-10T17:38:56.513Z,28.00
2019-04-10T17:41:23.873Z,29.72
2019-04-10T17:43:51.652Z,27.50
2019-04-10T17:46:19.391Z,27.95
2019-04-10T17:48:46.807Z,28.75
2019-04-10T17:51:14.149Z,26.30
2019-04-10T17:53:42.028Z,26.87
2019-04-10T17:56:09.234Z,26.68
2019-04-10T17:58:36.266Z,26.90
2019-04-10T18:01:03.957Z,26.07
2019-04-10T18:03:42.969Z,25.35
2019-04-10T18:06:01.352Z,24.90
2019-04-10T18:08:30.140Z,24.67
2019-04-10T18:10:58.713Z,24.30
2019-04-10T18:13:26.727Z,23.75
2019-04-10T18:15:55.402Z,24.57
2019-04-10T18:18:23.883Z,23.65
2019-04-10T18:20:52.489Z,26.00
2019-04-10T18:23:19.701Z,23.32
2019-04-10T18:25:46.965Z,23.75
2019-04-10T18:28:14.250Z,24.50
2019-04-10T18:30:41.314Z,23.95
2019-04-10T18:33:08.341Z,24.63
2019-04-10T18:35:35.390Z,24.12
2019-04-10T18:38:03.481Z,22.30
2019-04-10T18:40:31.930Z,23.22
2019-04-10T18:43:00.289Z,22.75
2019-04-10T18:45:28.028Z,22.40
2019-04-10T18:47:56.467Z,22.27
2019-04-10T18:50:24.483Z,22.02
2019-04-10T18:52:51.905Z,23.20
2019-04-10T18:55:20.389Z,21.87
2019-04-10T18:57:47.823Z,23.98
2019-04-10T19:00:15.758Z,23.45
2019-04-10T19:02:45.228Z,22.35
2019-04-10T19:05:13.889Z,20.95
2019-04-10T19:07:42.703Z,22.65
2019-04-10T19:10:11.486Z,21.97
2019-04-10T19:12:39.453Z,19.62
2019-04-10T19:15:06.803Z,22.02
2019-04-10T19:17:35.041Z,19.90
2019-04-10T19:20:02.514Z,20.43
2019-04-10T19:22:30.694Z,21.55
2019-04-10T19:24:58.346Z,21.12
2019-04-10T19:27:26.722Z,20.08
2019-04-10T19:29:54.970Z,20.10
2019-04-10T19:32:22.669Z,20.65
2019-04-10T19:34:50.113Z,19.15
2019-04-10T19:37:18.552Z,19.82
2019-04-10T19:39:46.873Z,17.30
2019-04-10T19:42:15.342Z,19.48
2019-04-10T19:44:43.506Z,19.20
2019-04-10T19:47:10.693Z,17.27
2019-04-10T19:49:38.786Z,17.45
2019-04-10T19:52:08.515Z,19.48
2019-04-10T19:54:35.985Z,18.55
2019-04-10T19:57:04.721Z,17.70
2019-04-10T19:59:32.058Z,18.30
2019-04-10T20:02:00.290Z,17.73
2019-04-10T20:04:28.396Z,17.37
2019-04-10T20:06:56.466Z,16.30
2019-04-10T20:09:24.286Z,17.52
2019-04-10T20:11:54.284Z,15.98
2019-04-10T20:14:20.338Z,17.50
2019-04-10T20:16:47.667Z,16.45
2019-04-10T20:19:15.214Z,16.45
2019-04-10T20:21:42.226Z,16.90
2019-04-10T20:24:10.413Z,17.48
2019-04-10T20:26:37.701Z,16.73
2019-04-10T20:29:04.985Z,17.90
2019-04-10T20:31:33.103Z,16.17
2019-04-10T20:34:00.142Z,14.53
2019-04-10T20:36:27.505Z,15.90
2019-04-10T20:38:54.862Z,15.38
2019-04-10T20:41:23.144Z,16.90
2019-04-10T20:43:51.190Z,14.95
2019-04-10T20:46:18.208Z,16.60
2019-04-10T20:48:46.699Z,15.18
2019-04-10T20:51:14.486Z,15.70
2019-04-10T20:53:42.239Z,17.45
2019-04-10T20:56:10.370Z,16.32
2019-04-10T20:58:38.200Z,16.73
2019-04-10T21:01:06.045Z,16.35
2019-04-10T21:03:33.838Z,15.53
2019-04-10T21:06:01.192Z,15.28
2019-04-10T21:08:29.684Z,17.07
2019-04-10T21:10:57.149Z,16.00
2019-04-10T21:13:25.320Z,16.65
2019-04-10T21:15:53.047Z,14.95
2019-04-10T21:18:21.195Z,14.15
2019-04-10T21:20:49.325Z,15.45
2019-04-10T21:23:17.168Z,15.03
2019-04-10T21:25:45.535Z,15.18
2019-04-10T21:28:12.676Z,14.75
2019-04-10T21:30:40.321Z,15.88
2019-04-10T21:33:07.951Z,16.12
2019-04-10T21:35:35.127Z,15.00
2019-04-10T21:38:02.636Z,15.38
2019-04-10T21:40:30.892Z,16.27
2019-04-10T21:42:58.197Z,13.68
2019-04-10T21:45:26.391Z,14.25
2019-04-10T21:47:54.375Z,14.33
2019-04-10T21:50:21.779Z,13.93
2019-04-10T21:52:49.754Z,15.72
2019-04-10T21:55:17.127Z,14.85
2019-04-10T21:57:44.754Z,16.45
2019-04-10T22:00:14.113Z,14.07
2019-04-10T22:02:45.006Z,14.03
2019-04-10T22:05:12.399Z,13.58
2019-04-10T22:07:40.528Z,14.00
2019-04-10T22:10:09.906Z,14.60
2019-04-10T22:12:43.876Z,12.80
2019-04-10T22:15:06.535Z,14.85
2019-04-10T22:17:34.217Z,14.15
2019-04-10T22:20:01.370Z,13.20
2019-04-10T22:22:28.990Z,12.05
2019-04-10T22:24:56.946Z,13.00
2019-04-10T22:27:25.489Z,13.15
2019-04-10T22:29:52.875Z,13.93
2019-04-10T22:32:19.912Z,13.25
2019-04-10T22:34:47.354Z,13.20
2019-04-10T22:37:16.603Z,14.43
2019-04-10T22:39:43.761Z,13.25
2019-04-10T22:42:11.101Z,12.75
2019-04-10T22:44:42.560Z,12.70
2019-04-10T22:47:07.143Z,12.00
2019-04-10T22:49:34.971Z,13.50
2019-04-10T22:52:02.641Z,12.63
2019-04-10T22:54:30.425Z,13.70
2019-04-10T22:56:58.513Z,12.88
2019-04-10T22:59:26.268Z,12.40
2019-04-10T23:02:03.390Z,12.10
2019-04-10T23:04:22.814Z,11.70
2019-04-10T23:06:50.297Z,12.75
2019-04-10T23:09:17.622Z,11.12
2019-04-10T23:11:46.213Z,12.50
2019-04-10T23:14:14.366Z,11.83
2019-04-10T23:16:41.483Z,11.88
2019-04-10T23:19:08.524Z,10.78
2019-04-10T23:21:36.581Z,10.75
2019-04-10T23:24:03.671Z,11.80
2019-04-10T23:26:31.214Z,11.93
2019-04-10T23:28:58.188Z,12.90
2019-04-10T23:31:25.750Z,11.85
2019-04-10T23:33:52.855Z,13.48
2019-04-10T23:36:20.212Z,12.53
2019-04-10T23:38:47.992Z,10.70
2019-04-10T23:41:15.657Z,11.73
2019-04-10T23:43:43.944Z,10.98
2019-04-10T23:46:11.772Z,11.15
2019-04-10T23:48:39.771Z,10.93
2019-04-10T23:51:07.116Z,12.70
2019-04-10T23:53:34.142Z,10.55
2019-04-10T23:56:02.135Z,11.15
2019-04-10T23:58:29.773Z,11.05
